Aviation Digital Data Service (ADDS)

Output produced by METARs form (1840 UTC 18 June 2019)
found at http://www.aviationweather.gov/metar/data/
 
MPPA 181800Z 34009KT 9000 FEW018 34/26 Q1007
TAF MPPA 181700Z 1818/1924 32006KT 9999 SCT018 
     PROB30 
     TEMPO 1819/1823 17005KT 7000 SHRA SCT016CB SCT090 
     TEMPO 1906/1910 00000KT 9999 FEW018
       
MPBO 181800Z VRB03KT 9999 SCT016 BKN080 ///// Q1012 RERA RWY WET
MPDA 181800Z 23005KT 9999 SCT016 32/25 Q1008
TAF MPDA 181700Z 1818/1906 24005KT 9999 SCT020 
     PROB30 
     TEMPO 1820/1824 18005KT 7000 SHRA SCT016CB SCT090
       
MPMG 181800Z 33010KT 9999 SCT018TCU 33/26 Q1007 NOSIG
TAF MPMG 181700Z 1818/1906 04004KT 9999 SCT018 
     PROB30 
     TEMPO 1819/1823 18005KT 7000 SHRA SCT016CB SCT090
       
MPTO 181800Z 15005KT 9000 SCT017TCU SCT090 33/26 Q1008 NOSIG
TAF MPTO 181700Z 1818/1924 VRB02KT 9999 SCT018 
     PROB30 
     TEMPO 1819/1823 16005KT 7000 SHRA SCT016CB SCT090 FM 1902/1906 00000KT 9999
SCT020 
     BECMG 1910/1914 09005KT 9000 SCT016CB BKN090